sensor_id;sensor_type;location;lat;lon;timestamp;P1;durP1;ratioP1;P2;durP2;ratioP2
10641;SDS011;5369;49.586;8.646;2024-03-17T00:00:17;6.40;;;5.20;;
10641;SDS011;5369;49.586;8.646;2024-03-17T00:02:44;6.30;;;5.17;;
10641;SDS011;5369;49.586;8.646;2024-03-17T00:05:10;5.63;;;4.97;;
10641;SDS011;5369;49.586;8.646;2024-03-17T00:07:36;5.20;;;4.20;;
10641;SDS011;5369;49.586;8.646;2024-03-17T00:10:03;5.23;;;4.73;;
10641;SDS011;5369;49.586;8.646;2024-03-17T00:12:29;5.17;;;4.47;;
10641;SDS011;5369;49.586;8.646;2024-03-17T00:14:55;6.03;;;4.67;;
10641;SDS011;5369;49.586;8.646;2024-03-17T00:17:21;7.47;;;5.63;;
10641;SDS011;5369;49.586;8.646;2024-03-17T00:19:48;5.97;;;4.67;;
10641;SDS011;5369;49.586;8.646;2024-03-17T00:22:14;6.47;;;5.40;;
10641;SDS011;5369;49.586;8.646;2024-03-17T00:24:40;9.33;;;6.40;;
10641;SDS011;5369;49.586;8.646;2024-03-17T00:27:06;10.83;;;7.03;;
10641;SDS011;5369;49.586;8.646;2024-03-17T00:29:32;8.80;;;5.90;;
10641;SDS011;5369;49.586;8.646;2024-03-17T00:31:59;7.07;;;5.33;;
10641;SDS011;5369;49.586;8.646;2024-03-17T00:34:25;12.70;;;7.70;;
10641;SDS011;5369;49.586;8.646;2024-03-17T00:36:51;8.50;;;6.37;;
10641;SDS011;5369;49.586;8.646;2024-03-17T00:39:17;8.17;;;5.90;;
10641;SDS011;5369;49.586;8.646;2024-03-17T00:41:44;6.27;;;5.33;;
10641;SDS011;5369;49.586;8.646;2024-03-17T00:44:10;8.57;;;5.33;;
10641;SDS011;5369;49.586;8.646;2024-03-17T00:46:36;6.23;;;4.90;;
10641;SDS011;5369;49.586;8.646;2024-03-17T00:49:03;5.33;;;4.40;;
10641;SDS011;5369;49.586;8.646;2024-03-17T00:51:31;7.47;;;5.43;;
10641;SDS011;5369;49.586;8.646;2024-03-17T00:53:57;6.23;;;4.93;;
10641;SDS011;5369;49.586;8.646;2024-03-17T00:56:23;7.97;;;4.60;;
10641;SDS011;5369;49.586;8.646;2024-03-17T00:58:49;8.27;;;4.87;;
10641;SDS011;5369;49.586;8.646;2024-03-17T01:01:16;5.43;;;4.87;;
10641;SDS011;5369;49.586;8.646;2024-03-17T01:03:44;6.63;;;4.67;;
10641;SDS011;5369;49.586;8.646;2024-03-17T01:06:10;8.10;;;5.17;;
10641;SDS011;5369;49.586;8.646;2024-03-17T01:08:37;9.53;;;4.87;;
10641;SDS011;5369;49.586;8.646;2024-03-17T01:11:03;5.90;;;4.40;;
10641;SDS011;5369;49.586;8.646;2024-03-17T01:13:33;7.33;;;5.30;;
10641;SDS011;5369;49.586;8.646;2024-03-17T01:16:00;6.40;;;4.23;;
10641;SDS011;5369;49.586;8.646;2024-03-17T01:18:26;5.50;;;3.67;;
10641;SDS011;5369;49.586;8.646;2024-03-17T01:20:52;4.20;;;3.80;;
10641;SDS011;5369;49.586;8.646;2024-03-17T01:23:18;4.20;;;3.77;;
10641;SDS011;5369;49.586;8.646;2024-03-17T01:25:44;5.60;;;3.70;;
10641;SDS011;5369;49.586;8.646;2024-03-17T01:28:11;3.57;;;3.20;;
10641;SDS011;5369;49.586;8.646;2024-03-17T01:30:37;6.23;;;3.40;;
10641;SDS011;5369;49.586;8.646;2024-03-17T01:33:05;4.00;;;3.03;;
10641;SDS011;5369;49.586;8.646;2024-03-17T01:35:31;4.47;;;3.27;;
10641;SDS011;5369;49.586;8.646;2024-03-17T01:37:57;4.27;;;3.27;;
10641;SDS011;5369;49.586;8.646;2024-03-17T01:40:23;4.17;;;3.40;;
10641;SDS011;5369;49.586;8.646;2024-03-17T01:42:49;5.77;;;3.97;;
10641;SDS011;5369;49.586;8.646;2024-03-17T01:47:41;4.47;;;3.73;;
10641;SDS011;5369;49.586;8.646;2024-03-17T01:50:08;5.77;;;3.80;;
10641;SDS011;5369;49.586;8.646;2024-03-17T01:52:35;4.47;;;3.87;;
10641;SDS011;5369;49.586;8.646;2024-03-17T01:55:02;4.40;;;3.90;;
10641;SDS011;5369;49.586;8.646;2024-03-17T01:57:29;6.17;;;4.20;;
10641;SDS011;5369;49.586;8.646;2024-03-17T01:59:55;6.90;;;5.97;;
10641;SDS011;5369;49.586;8.646;2024-03-17T02:02:22;8.63;;;6.30;;
10641;SDS011;5369;49.586;8.646;2024-03-17T02:04:48;16.67;;;8.83;;
10641;SDS011;5369;49.586;8.646;2024-03-17T02:07:15;12.17;;;7.43;;
10641;SDS011;5369;49.586;8.646;2024-03-17T02:09:41;11.07;;;6.47;;
10641;SDS011;5369;49.586;8.646;2024-03-17T02:12:10;8.77;;;6.27;;
10641;SDS011;5369;49.586;8.646;2024-03-17T02:14:37;11.13;;;6.70;;
10641;SDS011;5369;49.586;8.646;2024-03-17T02:17:03;7.17;;;4.97;;
10641;SDS011;5369;49.586;8.646;2024-03-17T02:19:29;5.27;;;4.20;;
10641;SDS011;5369;49.586;8.646;2024-03-17T02:21:55;4.33;;;3.77;;
10641;SDS011;5369;49.586;8.646;2024-03-17T02:24:21;5.30;;;3.87;;
10641;SDS011;5369;49.586;8.646;2024-03-17T02:26:47;12.20;;;7.13;;
10641;SDS011;5369;49.586;8.646;2024-03-17T02:29:13;9.63;;;6.03;;
10641;SDS011;5369;49.586;8.646;2024-03-17T02:31:40;5.93;;;4.50;;
10641;SDS011;5369;49.586;8.646;2024-03-17T02:34:06;5.20;;;4.37;;
10641;SDS011;5369;49.586;8.646;2024-03-17T02:36:32;11.10;;;6.77;;
10641;SDS011;5369;49.586;8.646;2024-03-17T02:38:58;6.70;;;5.13;;
10641;SDS011;5369;49.586;8.646;2024-03-17T02:41:43;6.03;;;4.10;;
10641;SDS011;5369;49.586;8.646;2024-03-17T02:44:11;5.37;;;4.33;;
10641;SDS011;5369;49.586;8.646;2024-03-17T02:46:37;7.47;;;4.30;;
10641;SDS011;5369;49.586;8.646;2024-03-17T02:49:03;10.27;;;5.90;;
10641;SDS011;5369;49.586;8.646;2024-03-17T02:51:30;6.40;;;4.90;;
10641;SDS011;5369;49.586;8.646;2024-03-17T02:53:56;5.53;;;4.10;;
10641;SDS011;5369;49.586;8.646;2024-03-17T02:56:24;5.57;;;4.43;;
10641;SDS011;5369;49.586;8.646;2024-03-17T02:58:51;5.60;;;3.80;;
10641;SDS011;5369;49.586;8.646;2024-03-17T03:01:17;4.27;;;3.70;;
10641;SDS011;5369;49.586;8.646;2024-03-17T03:03:45;4.93;;;3.73;;
10641;SDS011;5369;49.586;8.646;2024-03-17T03:06:11;4.37;;;3.70;;
10641;SDS011;5369;49.586;8.646;2024-03-17T03:08:41;5.47;;;3.70;;
10641;SDS011;5369;49.586;8.646;2024-03-17T03:11:08;5.03;;;3.67;;
10641;SDS011;5369;49.586;8.646;2024-03-17T03:13:36;4.27;;;3.87;;
10641;SDS011;5369;49.586;8.646;2024-03-17T03:16:05;6.00;;;4.10;;
10641;SDS011;5369;49.586;8.646;2024-03-17T03:18:31;5.23;;;3.90;;
10641;SDS011;5369;49.586;8.646;2024-03-17T03:20:57;4.97;;;4.00;;
10641;SDS011;5369;49.586;8.646;2024-03-17T03:23:23;5.13;;;4.17;;
10641;SDS011;5369;49.586;8.646;2024-03-17T03:25:54;5.57;;;3.80;;
10641;SDS011;5369;49.586;8.646;2024-03-17T03:28:21;4.70;;;3.93;;
10641;SDS011;5369;49.586;8.646;2024-03-17T03:30:47;5.60;;;4.03;;
10641;SDS011;5369;49.586;8.646;2024-03-17T03:33:13;6.17;;;4.43;;
10641;SDS011;5369;49.586;8.646;2024-03-17T03:35:39;4.73;;;3.90;;
10641;SDS011;5369;49.586;8.646;2024-03-17T03:38:05;5.17;;;4.10;;
10641;SDS011;5369;49.586;8.646;2024-03-17T03:40:33;4.57;;;3.87;;
10641;SDS011;5369;49.586;8.646;2024-03-17T03:42:59;6.80;;;4.77;;
10641;SDS011;5369;49.586;8.646;2024-03-17T03:45:25;5.20;;;4.57;;
10641;SDS011;5369;49.586;8.646;2024-03-17T03:47:52;7.57;;;4.70;;
10641;SDS011;5369;49.586;8.646;2024-03-17T03:50:19;4.77;;;4.20;;
10641;SDS011;5369;49.586;8.646;2024-03-17T03:52:46;6.23;;;3.97;;
10641;SDS011;5369;49.586;8.646;2024-03-17T03:55:12;5.73;;;3.90;;
10641;SDS011;5369;49.586;8.646;2024-03-17T03:57:42;5.90;;;4.07;;
10641;SDS011;5369;49.586;8.646;2024-03-17T04:00:11;6.53;;;4.60;;
10641;SDS011;5369;49.586;8.646;2024-03-17T04:02:41;6.73;;;4.80;;
10641;SDS011;5369;49.586;8.646;2024-03-17T04:05:09;5.57;;;4.70;;
10641;SDS011;5369;49.586;8.646;2024-03-17T04:07:36;7.17;;;4.80;;
10641;SDS011;5369;49.586;8.646;2024-03-17T04:10:03;5.17;;;3.83;;
10641;SDS011;5369;49.586;8.646;2024-03-17T04:12:30;5.03;;;3.70;;
10641;SDS011;5369;49.586;8.646;2024-03-17T04:14:59;5.33;;;4.40;;
10641;SDS011;5369;49.586;8.646;2024-03-17T04:17:25;6.73;;;4.80;;
10641;SDS011;5369;49.586;8.646;2024-03-17T04:19:52;7.50;;;4.50;;
10641;SDS011;5369;49.586;8.646;2024-03-17T04:22:19;6.27;;;4.47;;
10641;SDS011;5369;49.586;8.646;2024-03-17T04:24:46;6.67;;;5.07;;
10641;SDS011;5369;49.586;8.646;2024-03-17T04:27:12;4.97;;;4.47;;
10641;SDS011;5369;49.586;8.646;2024-03-17T04:29:39;5.60;;;4.33;;
10641;SDS011;5369;49.586;8.646;2024-03-17T04:32:05;4.57;;;3.93;;
10641;SDS011;5369;49.586;8.646;2024-03-17T04:34:32;5.77;;;4.10;;
10641;SDS011;5369;49.586;8.646;2024-03-17T04:36:58;6.27;;;5.00;;
10641;SDS011;5369;49.586;8.646;2024-03-17T04:39:24;5.13;;;4.33;;
10641;SDS011;5369;49.586;8.646;2024-03-17T04:41:51;5.20;;;4.37;;
10641;SDS011;5369;49.586;8.646;2024-03-17T04:44:17;4.80;;;4.30;;
10641;SDS011;5369;49.586;8.646;2024-03-17T04:46:43;6.87;;;4.20;;
10641;SDS011;5369;49.586;8.646;2024-03-17T04:49:09;7.30;;;4.83;;
10641;SDS011;5369;49.586;8.646;2024-03-17T04:51:36;5.60;;;4.67;;
10641;SDS011;5369;49.586;8.646;2024-03-17T04:54:02;6.20;;;4.70;;
10641;SDS011;5369;49.586;8.646;2024-03-17T04:56:32;6.43;;;4.53;;
10641;SDS011;5369;49.586;8.646;2024-03-17T04:58:58;4.83;;;3.97;;
10641;SDS011;5369;49.586;8.646;2024-03-17T05:01:24;5.00;;;3.53;;
10641;SDS011;5369;49.586;8.646;2024-03-17T05:03:51;9.17;;;3.90;;
10641;SDS011;5369;49.586;8.646;2024-03-17T05:06:17;3.87;;;3.37;;
10641;SDS011;5369;49.586;8.646;2024-03-17T05:08:43;5.40;;;4.03;;
10641;SDS011;5369;49.586;8.646;2024-03-17T05:11:10;7.30;;;4.27;;
10641;SDS011;5369;49.586;8.646;2024-03-17T05:13:39;5.77;;;3.90;;
10641;SDS011;5369;49.586;8.646;2024-03-17T05:16:05;4.67;;;3.67;;
10641;SDS011;5369;49.586;8.646;2024-03-17T05:18:31;5.73;;;3.73;;
10641;SDS011;5369;49.586;8.646;2024-03-17T05:20:58;5.87;;;3.70;;
10641;SDS011;5369;49.586;8.646;2024-03-17T05:23:28;4.80;;;3.67;;
10641;SDS011;5369;49.586;8.646;2024-03-17T05:25:55;5.07;;;3.70;;
10641;SDS011;5369;49.586;8.646;2024-03-17T05:28:21;4.80;;;3.40;;
10641;SDS011;5369;49.586;8.646;2024-03-17T05:30:48;4.07;;;3.60;;
10641;SDS011;5369;49.586;8.646;2024-03-17T05:33:16;4.60;;;4.00;;
10641;SDS011;5369;49.586;8.646;2024-03-17T05:35:52;5.07;;;4.10;;
10641;SDS011;5369;49.586;8.646;2024-03-17T05:38:19;4.63;;;3.77;;
10641;SDS011;5369;49.586;8.646;2024-03-17T05:40:52;8.20;;;5.33;;
10641;SDS011;5369;49.586;8.646;2024-03-17T05:43:20;4.80;;;3.90;;
10641;SDS011;5369;49.586;8.646;2024-03-17T05:45:46;4.77;;;3.73;;
10641;SDS011;5369;49.586;8.646;2024-03-17T05:48:12;4.33;;;3.50;;
10641;SDS011;5369;49.586;8.646;2024-03-17T05:50:39;4.77;;;3.77;;
10641;SDS011;5369;49.586;8.646;2024-03-17T05:53:05;4.20;;;3.50;;
10641;SDS011;5369;49.586;8.646;2024-03-17T05:55:31;4.63;;;3.93;;
10641;SDS011;5369;49.586;8.646;2024-03-17T05:57:57;4.70;;;3.77;;
10641;SDS011;5369;49.586;8.646;2024-03-17T06:00:23;6.70;;;5.07;;
10641;SDS011;5369;49.586;8.646;2024-03-17T06:02:49;5.07;;;4.03;;
10641;SDS011;5369;49.586;8.646;2024-03-17T06:05:15;5.67;;;4.03;;
10641;SDS011;5369;49.586;8.646;2024-03-17T06:07:41;5.50;;;4.30;;
10641;SDS011;5369;49.586;8.646;2024-03-17T06:10:07;6.63;;;3.90;;
10641;SDS011;5369;49.586;8.646;2024-03-17T06:12:34;5.50;;;3.70;;
10641;SDS011;5369;49.586;8.646;2024-03-17T06:15:00;5.53;;;4.00;;
10641;SDS011;5369;49.586;8.646;2024-03-17T06:17:27;4.60;;;4.10;;
10641;SDS011;5369;49.586;8.646;2024-03-17T06:19:53;3.97;;;3.40;;
10641;SDS011;5369;49.586;8.646;2024-03-17T06:22:19;3.40;;;3.10;;
10641;SDS011;5369;49.586;8.646;2024-03-17T06:24:45;4.03;;;3.60;;
10641;SDS011;5369;49.586;8.646;2024-03-17T06:27:11;6.23;;;4.37;;
10641;SDS011;5369;49.586;8.646;2024-03-17T06:29:38;4.73;;;3.83;;
10641;SDS011;5369;49.586;8.646;2024-03-17T06:32:05;6.83;;;3.57;;
10641;SDS011;5369;49.586;8.646;2024-03-17T06:34:31;5.80;;;3.23;;
10641;SDS011;5369;49.586;8.646;2024-03-17T06:36:57;3.70;;;3.00;;
10641;SDS011;5369;49.586;8.646;2024-03-17T06:39:25;4.10;;;3.00;;
10641;SDS011;5369;49.586;8.646;2024-03-17T06:41:51;6.13;;;3.13;;
10641;SDS011;5369;49.586;8.646;2024-03-17T06:44:17;4.27;;;3.87;;
10641;SDS011;5369;49.586;8.646;2024-03-17T06:46:44;6.53;;;5.00;;
10641;SDS011;5369;49.586;8.646;2024-03-17T06:49:12;4.37;;;3.50;;
10641;SDS011;5369;49.586;8.646;2024-03-17T06:51:38;4.40;;;3.27;;
10641;SDS011;5369;49.586;8.646;2024-03-17T06:54:04;3.53;;;2.70;;
10641;SDS011;5369;49.586;8.646;2024-03-17T06:56:30;3.63;;;2.90;;
10641;SDS011;5369;49.586;8.646;2024-03-17T06:58:57;3.80;;;2.60;;
10641;SDS011;5369;49.586;8.646;2024-03-17T07:01:24;3.10;;;2.53;;
10641;SDS011;5369;49.586;8.646;2024-03-17T07:03:50;3.47;;;2.87;;
10641;SDS011;5369;49.586;8.646;2024-03-17T07:06:16;4.07;;;2.90;;
10641;SDS011;5369;49.586;8.646;2024-03-17T07:08:42;4.07;;;2.70;;
10641;SDS011;5369;49.586;8.646;2024-03-17T07:11:08;3.93;;;3.57;;
10641;SDS011;5369;49.586;8.646;2024-03-17T07:13:35;4.10;;;3.50;;
10641;SDS011;5369;49.586;8.646;2024-03-17T07:16:02;5.67;;;3.53;;
10641;SDS011;5369;49.586;8.646;2024-03-17T07:18:29;5.13;;;3.90;;
10641;SDS011;5369;49.586;8.646;2024-03-17T07:21:04;4.80;;;4.07;;
10641;SDS011;5369;49.586;8.646;2024-03-17T07:23:31;7.53;;;3.97;;
10641;SDS011;5369;49.586;8.646;2024-03-17T07:25:58;5.67;;;4.40;;
10641;SDS011;5369;49.586;8.646;2024-03-17T07:28:24;5.03;;;4.10;;
10641;SDS011;5369;49.586;8.646;2024-03-17T07:30:57;5.00;;;4.00;;
10641;SDS011;5369;49.586;8.646;2024-03-17T07:33:25;4.93;;;4.03;;
10641;SDS011;5369;49.586;8.646;2024-03-17T07:35:52;4.30;;;3.90;;
10641;SDS011;5369;49.586;8.646;2024-03-17T07:38:20;4.90;;;3.90;;
10641;SDS011;5369;49.586;8.646;2024-03-17T07:40:55;4.80;;;4.30;;
10641;SDS011;5369;49.586;8.646;2024-03-17T07:43:22;7.30;;;4.80;;
10641;SDS011;5369;49.586;8.646;2024-03-17T07:46:02;5.43;;;4.93;;
10641;SDS011;5369;49.586;8.646;2024-03-17T07:48:32;4.83;;;4.40;;
10641;SDS011;5369;49.586;8.646;2024-03-17T07:51:01;4.63;;;4.23;;
10641;SDS011;5369;49.586;8.646;2024-03-17T07:53:29;5.10;;;4.20;;
10641;SDS011;5369;49.586;8.646;2024-03-17T07:56:08;4.23;;;3.83;;
10641;SDS011;5369;49.586;8.646;2024-03-17T07:58:35;5.03;;;3.37;;
10641;SDS011;5369;49.586;8.646;2024-03-17T08:01:04;3.97;;;3.10;;
10641;SDS011;5369;49.586;8.646;2024-03-17T08:03:31;5.23;;;3.63;;
10641;SDS011;5369;49.586;8.646;2024-03-17T08:05:58;4.90;;;3.50;;
10641;SDS011;5369;49.586;8.646;2024-03-17T08:08:24;3.70;;;3.33;;
10641;SDS011;5369;49.586;8.646;2024-03-17T08:10:50;3.50;;;3.20;;
10641;SDS011;5369;49.586;8.646;2024-03-17T08:13:17;4.33;;;3.10;;
10641;SDS011;5369;49.586;8.646;2024-03-17T08:15:43;3.67;;;3.37;;
10641;SDS011;5369;49.586;8.646;2024-03-17T08:18:11;4.70;;;4.07;;
10641;SDS011;5369;49.586;8.646;2024-03-17T08:20:38;5.13;;;4.10;;
10641;SDS011;5369;49.586;8.646;2024-03-17T08:23:11;4.43;;;3.90;;
10641;SDS011;5369;49.586;8.646;2024-03-17T08:25:38;6.20;;;4.10;;
10641;SDS011;5369;49.586;8.646;2024-03-17T08:28:04;7.33;;;4.10;;
10641;SDS011;5369;49.586;8.646;2024-03-17T08:30:30;4.23;;;3.83;;
10641;SDS011;5369;49.586;8.646;2024-03-17T08:32:56;5.70;;;4.03;;
10641;SDS011;5369;49.586;8.646;2024-03-17T08:35:23;4.80;;;3.97;;
10641;SDS011;5369;49.586;8.646;2024-03-17T08:37:49;7.07;;;3.97;;
10641;SDS011;5369;49.586;8.646;2024-03-17T08:40:17;4.93;;;3.80;;
10641;SDS011;5369;49.586;8.646;2024-03-17T08:42:43;4.80;;;3.90;;
10641;SDS011;5369;49.586;8.646;2024-03-17T08:45:10;5.67;;;4.20;;
10641;SDS011;5369;49.586;8.646;2024-03-17T08:47:36;4.47;;;3.47;;
10641;SDS011;5369;49.586;8.646;2024-03-17T08:50:02;3.90;;;3.50;;
10641;SDS011;5369;49.586;8.646;2024-03-17T08:52:29;3.67;;;3.30;;
10641;SDS011;5369;49.586;8.646;2024-03-17T08:54:58;5.03;;;3.93;;
10641;SDS011;5369;49.586;8.646;2024-03-17T08:57:25;6.40;;;3.93;;
10641;SDS011;5369;49.586;8.646;2024-03-17T08:59:51;4.93;;;3.90;;
10641;SDS011;5369;49.586;8.646;2024-03-17T09:02:18;5.10;;;4.03;;
10641;SDS011;5369;49.586;8.646;2024-03-17T09:04:49;4.40;;;4.00;;
10641;SDS011;5369;49.586;8.646;2024-03-17T09:07:15;5.20;;;4.13;;
10641;SDS011;5369;49.586;8.646;2024-03-17T09:09:41;4.77;;;4.00;;
10641;SDS011;5369;49.586;8.646;2024-03-17T09:12:07;4.30;;;3.77;;
10641;SDS011;5369;49.586;8.646;2024-03-17T09:14:34;4.20;;;3.80;;
10641;SDS011;5369;49.586;8.646;2024-03-17T09:17:01;4.60;;;3.47;;
10641;SDS011;5369;49.586;8.646;2024-03-17T09:19:27;5.57;;;3.73;;
10641;SDS011;5369;49.586;8.646;2024-03-17T09:21:54;4.20;;;3.63;;
10641;SDS011;5369;49.586;8.646;2024-03-17T09:24:20;4.97;;;3.70;;
10641;SDS011;5369;49.586;8.646;2024-03-17T09:26:46;5.03;;;3.97;;
10641;SDS011;5369;49.586;8.646;2024-03-17T09:29:13;4.53;;;3.83;;
10641;SDS011;5369;49.586;8.646;2024-03-17T09:31:42;4.27;;;3.70;;
10641;SDS011;5369;49.586;8.646;2024-03-17T09:34:08;4.43;;;3.50;;
10641;SDS011;5369;49.586;8.646;2024-03-17T09:36:35;4.57;;;4.13;;
10641;SDS011;5369;49.586;8.646;2024-03-17T09:39:01;4.93;;;4.17;;
10641;SDS011;5369;49.586;8.646;2024-03-17T09:41:29;6.23;;;3.70;;
10641;SDS011;5369;49.586;8.646;2024-03-17T09:43:56;4.33;;;3.63;;
10641;SDS011;5369;49.586;8.646;2024-03-17T09:46:24;5.83;;;4.17;;
10641;SDS011;5369;49.586;8.646;2024-03-17T09:48:51;5.00;;;4.50;;
10641;SDS011;5369;49.586;8.646;2024-03-17T09:51:18;5.60;;;3.90;;
10641;SDS011;5369;49.586;8.646;2024-03-17T09:53:45;4.20;;;3.80;;
10641;SDS011;5369;49.586;8.646;2024-03-17T09:56:12;5.17;;;4.13;;
10641;SDS011;5369;49.586;8.646;2024-03-17T09:58:41;5.20;;;4.33;;
10641;SDS011;5369;49.586;8.646;2024-03-17T10:01:07;4.73;;;4.33;;
10641;SDS011;5369;49.586;8.646;2024-03-17T10:03:46;5.17;;;4.27;;
10641;SDS011;5369;49.586;8.646;2024-03-17T10:06:29;4.87;;;4.33;;
10641;SDS011;5369;49.586;8.646;2024-03-17T10:08:56;5.80;;;4.17;;
10641;SDS011;5369;49.586;8.646;2024-03-17T10:11:23;5.07;;;4.43;;
10641;SDS011;5369;49.586;8.646;2024-03-17T10:13:59;6.70;;;4.47;;
10641;SDS011;5369;49.586;8.646;2024-03-17T10:16:26;5.20;;;4.47;;
10641;SDS011;5369;49.586;8.646;2024-03-17T10:19:10;5.77;;;4.67;;
10641;SDS011;5369;49.586;8.646;2024-03-17T10:21:37;4.67;;;4.27;;
10641;SDS011;5369;49.586;8.646;2024-03-17T10:24:04;5.57;;;4.87;;
10641;SDS011;5369;49.586;8.646;2024-03-17T10:26:35;4.87;;;4.47;;
10641;SDS011;5369;49.586;8.646;2024-03-17T10:29:01;4.60;;;4.17;;
10641;SDS011;5369;49.586;8.646;2024-03-17T10:31:27;4.70;;;4.20;;
10641;SDS011;5369;49.586;8.646;2024-03-17T10:34:03;5.47;;;4.73;;
10641;SDS011;5369;49.586;8.646;2024-03-17T10:36:29;5.00;;;4.33;;
10641;SDS011;5369;49.586;8.646;2024-03-17T10:38:55;5.20;;;4.50;;
10641;SDS011;5369;49.586;8.646;2024-03-17T10:41:21;5.90;;;4.93;;
10641;SDS011;5369;49.586;8.646;2024-03-17T10:43:48;5.97;;;4.43;;
10641;SDS011;5369;49.586;8.646;2024-03-17T10:46:14;6.03;;;4.50;;
10641;SDS011;5369;49.586;8.646;2024-03-17T10:48:41;5.17;;;4.67;;
10641;SDS011;5369;49.586;8.646;2024-03-17T10:51:08;5.77;;;4.50;;
10641;SDS011;5369;49.586;8.646;2024-03-17T10:53:39;5.73;;;4.43;;
10641;SDS011;5369;49.586;8.646;2024-03-17T10:56:05;5.23;;;4.73;;
10641;SDS011;5369;49.586;8.646;2024-03-17T11:01:01;5.20;;;4.70;;
10641;SDS011;5369;49.586;8.646;2024-03-17T11:03:32;5.77;;;4.57;;
10641;SDS011;5369;49.586;8.646;2024-03-17T11:05:59;5.10;;;4.30;;
10641;SDS011;5369;49.586;8.646;2024-03-17T11:08:29;4.50;;;4.10;;
10641;SDS011;5369;49.586;8.646;2024-03-17T11:10:56;5.33;;;4.83;;
10641;SDS011;5369;49.586;8.646;2024-03-17T11:13:23;5.00;;;4.20;;
10641;SDS011;5369;49.586;8.646;2024-03-17T11:15:51;10.33;;;6.63;;
10641;SDS011;5369;49.586;8.646;2024-03-17T11:20:58;6.50;;;4.70;;
10641;SDS011;5369;49.586;8.646;2024-03-17T11:23:28;6.77;;;5.03;;
10641;SDS011;5369;49.586;8.646;2024-03-17T11:25:55;6.87;;;5.33;;
10641;SDS011;5369;49.586;8.646;2024-03-17T11:31:31;4.77;;;4.10;;
10641;SDS011;5369;49.586;8.646;2024-03-17T11:33:53;5.50;;;4.50;;
10641;SDS011;5369;49.586;8.646;2024-03-17T11:38:50;4.70;;;4.20;;
10641;SDS011;5369;49.586;8.646;2024-03-17T11:46:57;5.77;;;4.80;;
10641;SDS011;5369;49.586;8.646;2024-03-17T11:49:27;4.97;;;4.20;;
10641;SDS011;5369;49.586;8.646;2024-03-17T11:51:54;5.83;;;4.70;;
10641;SDS011;5369;49.586;8.646;2024-03-17T11:54:24;5.00;;;4.47;;
10641;SDS011;5369;49.586;8.646;2024-03-17T11:56:52;5.03;;;4.53;;
10641;SDS011;5369;49.586;8.646;2024-03-17T11:59:19;5.63;;;4.63;;
10641;SDS011;5369;49.586;8.646;2024-03-17T12:01:46;5.47;;;4.33;;
10641;SDS011;5369;49.586;8.646;2024-03-17T12:04:15;5.90;;;4.83;;
10641;SDS011;5369;49.586;8.646;2024-03-17T12:06:48;6.57;;;5.17;;
10641;SDS011;5369;49.586;8.646;2024-03-17T12:11:46;6.23;;;5.40;;
10641;SDS011;5369;49.586;8.646;2024-03-17T12:14:16;6.97;;;5.20;;
10641;SDS011;5369;49.586;8.646;2024-03-17T12:16:48;5.50;;;4.60;;
10641;SDS011;5369;49.586;8.646;2024-03-17T12:19:15;7.17;;;5.57;;
10641;SDS011;5369;49.586;8.646;2024-03-17T12:21:44;8.97;;;6.13;;
10641;SDS011;5369;49.586;8.646;2024-03-17T12:24:14;7.03;;;5.53;;
10641;SDS011;5369;49.586;8.646;2024-03-17T12:26:42;6.43;;;5.33;;
10641;SDS011;5369;49.586;8.646;2024-03-17T12:31:55;7.53;;;5.00;;
10641;SDS011;5369;49.586;8.646;2024-03-17T12:34:22;6.30;;;4.93;;
10641;SDS011;5369;49.586;8.646;2024-03-17T12:36:48;7.47;;;4.93;;
10641;SDS011;5369;49.586;8.646;2024-03-17T12:44:35;7.07;;;5.20;;
10641;SDS011;5369;49.586;8.646;2024-03-17T12:47:03;6.80;;;5.20;;
10641;SDS011;5369;49.586;8.646;2024-03-17T12:49:30;5.87;;;4.27;;
10641;SDS011;5369;49.586;8.646;2024-03-17T12:51:56;6.70;;;5.13;;
10641;SDS011;5369;49.586;8.646;2024-03-17T12:54:24;5.37;;;4.43;;
10641;SDS011;5369;49.586;8.646;2024-03-17T12:56:51;5.60;;;5.10;;
10641;SDS011;5369;49.586;8.646;2024-03-17T12:59:36;4.73;;;4.30;;
10641;SDS011;5369;49.586;8.646;2024-03-17T13:02:21;6.03;;;4.70;;
10641;SDS011;5369;49.586;8.646;2024-03-17T13:05:04;5.87;;;4.33;;
10641;SDS011;5369;49.586;8.646;2024-03-17T13:07:31;5.47;;;4.97;;
10641;SDS011;5369;49.586;8.646;2024-03-17T13:09:57;7.37;;;5.10;;
10641;SDS011;5369;49.586;8.646;2024-03-17T13:12:23;6.50;;;5.20;;
10641;SDS011;5369;49.586;8.646;2024-03-17T13:14:49;5.47;;;4.97;;
10641;SDS011;5369;49.586;8.646;2024-03-17T13:17:15;5.53;;;4.70;;
10641;SDS011;5369;49.586;8.646;2024-03-17T13:19:45;8.30;;;5.17;;
10641;SDS011;5369;49.586;8.646;2024-03-17T13:22:12;7.33;;;5.47;;
10641;SDS011;5369;49.586;8.646;2024-03-17T13:24:38;6.70;;;4.93;;
10641;SDS011;5369;49.586;8.646;2024-03-17T13:27:04;8.67;;;5.37;;
10641;SDS011;5369;49.586;8.646;2024-03-17T13:29:33;5.60;;;5.00;;
10641;SDS011;5369;49.586;8.646;2024-03-17T13:32:02;6.50;;;4.90;;
10641;SDS011;5369;49.586;8.646;2024-03-17T13:34:28;9.87;;;5.33;;
10641;SDS011;5369;49.586;8.646;2024-03-17T13:36:54;5.27;;;4.37;;
10641;SDS011;5369;49.586;8.646;2024-03-17T13:39:21;7.03;;;5.70;;
10641;SDS011;5369;49.586;8.646;2024-03-17T13:41:47;6.70;;;5.43;;
10641;SDS011;5369;49.586;8.646;2024-03-17T13:44:14;5.90;;;5.00;;
10641;SDS011;5369;49.586;8.646;2024-03-17T13:46:42;7.07;;;4.90;;
10641;SDS011;5369;49.586;8.646;2024-03-17T13:49:08;5.47;;;4.57;;
10641;SDS011;5369;49.586;8.646;2024-03-17T13:51:34;6.07;;;4.77;;
10641;SDS011;5369;49.586;8.646;2024-03-17T13:54:01;5.50;;;5.00;;
10641;SDS011;5369;49.586;8.646;2024-03-17T13:56:27;5.23;;;4.57;;
10641;SDS011;5369;49.586;8.646;2024-03-17T13:58:54;5.20;;;4.47;;
10641;SDS011;5369;49.586;8.646;2024-03-17T14:01:20;6.30;;;4.60;;
10641;SDS011;5369;49.586;8.646;2024-03-17T14:03:46;5.37;;;4.40;;
10641;SDS011;5369;49.586;8.646;2024-03-17T14:06:12;4.93;;;4.40;;
10641;SDS011;5369;49.586;8.646;2024-03-17T14:08:38;5.60;;;4.70;;
10641;SDS011;5369;49.586;8.646;2024-03-17T14:11:04;5.20;;;4.70;;
10641;SDS011;5369;49.586;8.646;2024-03-17T14:13:30;5.07;;;4.30;;
10641;SDS011;5369;49.586;8.646;2024-03-17T14:15:57;5.13;;;4.60;;
10641;SDS011;5369;49.586;8.646;2024-03-17T14:18:24;5.70;;;4.20;;
10641;SDS011;5369;49.586;8.646;2024-03-17T14:20:50;5.53;;;4.03;;
10641;SDS011;5369;49.586;8.646;2024-03-17T14:23:16;5.50;;;4.27;;
10641;SDS011;5369;49.586;8.646;2024-03-17T14:25:43;4.80;;;4.23;;
10641;SDS011;5369;49.586;8.646;2024-03-17T14:28:09;5.07;;;4.50;;
10641;SDS011;5369;49.586;8.646;2024-03-17T14:30:35;5.63;;;4.10;;
10641;SDS011;5369;49.586;8.646;2024-03-17T14:33:01;4.67;;;3.47;;
10641;SDS011;5369;49.586;8.646;2024-03-17T14:35:32;5.13;;;4.53;;
10641;SDS011;5369;49.586;8.646;2024-03-17T14:37:58;5.00;;;4.17;;
10641;SDS011;5369;49.586;8.646;2024-03-17T14:40:24;5.53;;;3.97;;
10641;SDS011;5369;49.586;8.646;2024-03-17T14:42:53;6.23;;;4.20;;
10641;SDS011;5369;49.586;8.646;2024-03-17T14:45:21;5.57;;;4.30;;
10641;SDS011;5369;49.586;8.646;2024-03-17T14:47:50;5.57;;;4.83;;
10641;SDS011;5369;49.586;8.646;2024-03-17T14:50:19;6.80;;;4.20;;
10641;SDS011;5369;49.586;8.646;2024-03-17T14:52:45;5.77;;;4.27;;
10641;SDS011;5369;49.586;8.646;2024-03-17T14:55:12;4.33;;;3.73;;
10641;SDS011;5369;49.586;8.646;2024-03-17T14:57:38;4.63;;;3.97;;
10641;SDS011;5369;49.586;8.646;2024-03-17T15:00:08;4.93;;;3.87;;
10641;SDS011;5369;49.586;8.646;2024-03-17T15:02:44;5.37;;;3.80;;
10641;SDS011;5369;49.586;8.646;2024-03-17T15:05:12;4.87;;;4.10;;
10641;SDS011;5369;49.586;8.646;2024-03-17T15:07:39;6.07;;;3.60;;
10641;SDS011;5369;49.586;8.646;2024-03-17T15:10:06;3.60;;;3.27;;
10641;SDS011;5369;49.586;8.646;2024-03-17T15:12:33;3.30;;;3.00;;
10641;SDS011;5369;49.586;8.646;2024-03-17T15:14:59;5.00;;;3.70;;
10641;SDS011;5369;49.586;8.646;2024-03-17T15:17:25;4.17;;;3.60;;
10641;SDS011;5369;49.586;8.646;2024-03-17T15:19:54;3.93;;;3.50;;
10641;SDS011;5369;49.586;8.646;2024-03-17T15:22:20;4.07;;;3.40;;
10641;SDS011;5369;49.586;8.646;2024-03-17T15:24:47;5.10;;;4.03;;
10641;SDS011;5369;49.586;8.646;2024-03-17T15:27:13;3.97;;;3.33;;
10641;SDS011;5369;49.586;8.646;2024-03-17T15:29:40;3.97;;;3.57;;